createdAt,value
2022-12-01T00:01:49.795Z,44.75
2022-12-01T00:04:18.526Z,42.47
2022-12-01T00:06:46.967Z,44.60
2022-12-01T00:09:32.796Z,43.97
2022-12-01T00:12:02.918Z,42.40
2022-12-01T00:14:31.518Z,42.63
2022-12-01T00:17:01.446Z,42.72
2022-12-01T00:19:30.710Z,43.72
2022-12-01T00:22:00.513Z,46.63
2022-12-01T00:24:31.207Z,47.10
2022-12-01T00:27:00.567Z,50.33
2022-12-01T00:29:30.898Z,49.08
2022-12-01T00:32:00.470Z,44.53
2022-12-01T00:34:29.476Z,40.28
2022-12-01T00:36:58.947Z,40.45
2022-12-01T00:39:27.338Z,38.88
2022-12-01T00:41:55.591Z,40.50
2022-12-01T00:44:23.975Z,36.95
2022-12-01T00:46:54.259Z,39.85
2022-12-01T00:49:23.982Z,40.60
2022-12-01T00:51:53.723Z,32.05
2022-12-01T00:54:22.265Z,26.05
2022-12-01T00:56:51.346Z,36.17
2022-12-01T00:59:19.796Z,27.25
2022-12-01T01:01:48.306Z,24.17
2022-12-01T01:04:18.536Z,29.95
2022-12-01T01:06:47.147Z,21.15
2022-12-01T01:09:18.901Z,17.48
2022-12-01T01:11:47.467Z,16.27
2022-12-01T01:14:16.617Z,8.40
2022-12-01T01:16:45.325Z,6.18
2022-12-01T01:19:14.852Z,4.97
2022-12-01T01:21:45.909Z,3.40
2022-12-01T01:24:16.655Z,3.08
2022-12-01T01:26:45.171Z,2.65
2022-12-01T01:29:15.147Z,2.60
2022-12-01T01:31:43.633Z,2.33
2022-12-01T01:34:14.232Z,2.70
2022-12-01T01:36:43.755Z,2.63
2022-12-01T01:39:15.758Z,2.65
2022-12-01T01:41:46.273Z,2.10
2022-12-01T01:44:50.447Z,2.25
2022-12-01T01:47:29.389Z,2.30
2022-12-01T01:50:05.599Z,2.40
2022-12-01T01:52:35.094Z,1.90
2022-12-01T01:55:05.324Z,2.40
2022-12-01T01:57:36.045Z,2.17
2022-12-01T02:00:09.579Z,1.90
2022-12-01T02:02:41.461Z,2.03
2022-12-01T02:05:17.524Z,2.10
2022-12-01T02:07:47.113Z,1.85
2022-12-01T02:10:23.026Z,2.00
2022-12-01T02:13:07.423Z,1.98
2022-12-01T02:15:50.328Z,1.70
2022-12-01T02:18:35.149Z,1.80
2022-12-01T02:21:30.998Z,1.80
2022-12-01T02:24:49.828Z,1.92
2022-12-01T02:27:50.714Z,2.22
2022-12-01T02:30:28.129Z,2.47
2022-12-01T02:33:09.361Z,1.83
2022-12-01T02:35:46.988Z,2.25
2022-12-01T02:38:26.582Z,1.83
2022-12-01T02:41:01.878Z,1.70
2022-12-01T02:43:37.447Z,1.83
2022-12-01T02:46:14.224Z,1.77
2022-12-01T02:48:46.103Z,1.65
2022-12-01T02:51:20.748Z,1.90
2022-12-01T02:53:49.556Z,2.00
2022-12-01T02:56:24.707Z,1.60
2022-12-01T02:58:55.175Z,2.05
2022-12-01T03:01:39.762Z,1.80
2022-12-01T03:04:35.490Z,1.95
2022-12-01T03:07:17.626Z,4.15
2022-12-01T03:09:56.771Z,5.90
2022-12-01T03:12:35.485Z,5.60
2022-12-01T03:15:11.167Z,8.10
2022-12-01T03:17:48.964Z,8.50
2022-12-01T03:20:26.712Z,8.88
2022-12-01T03:23:01.882Z,8.77
2022-12-01T03:25:32.640Z,9.35
2022-12-01T03:28:24.902Z,8.13
2022-12-01T03:31:00.558Z,7.10
2022-12-01T03:33:37.163Z,6.38
2022-12-01T03:36:12.208Z,6.30
2022-12-01T03:38:43.177Z,5.65
2022-12-01T03:41:24.364Z,6.70
2022-12-01T03:44:04.876Z,6.57
2022-12-01T03:46:44.905Z,7.43
2022-12-01T03:49:16.557Z,6.75
2022-12-01T03:51:57.170Z,7.32
2022-12-01T03:54:36.029Z,6.13
2022-12-01T03:57:12.237Z,6.32
2022-12-01T03:59:45.801Z,5.32
2022-12-01T04:02:29.685Z,5.28
2022-12-01T04:05:06.474Z,4.97
2022-12-01T04:07:35.331Z,3.20
2022-12-01T04:10:09.181Z,2.45
2022-12-01T04:12:37.470Z,2.20
2022-12-01T04:15:14.856Z,2.10
2022-12-01T04:17:46.196Z,2.20
2022-12-01T04:20:17.840Z,2.15
2022-12-01T04:22:47.540Z,2.05
2022-12-01T04:25:16.347Z,1.55
2022-12-01T04:27:44.990Z,1.55
2022-12-01T04:30:14.538Z,1.60
2022-12-01T04:32:44.956Z,1.45
2022-12-01T04:35:16.870Z,1.63
2022-12-01T04:37:46.416Z,1.58
2022-12-01T04:40:15.006Z,1.65
2022-12-01T04:42:49.384Z,1.65
2022-12-01T04:45:19.830Z,1.48
2022-12-01T04:47:49.650Z,1.70
2022-12-01T04:50:19.567Z,1.60
2022-12-01T04:52:48.158Z,1.67
2022-12-01T04:55:17.817Z,1.90
2022-12-01T04:57:53.336Z,1.65
2022-12-01T05:00:21.896Z,1.52
2022-12-01T05:02:52.478Z,1.67
2022-12-01T05:05:27.232Z,1.60
2022-12-01T05:07:59.455Z,1.98
2022-12-01T05:10:28.337Z,1.73
2022-12-01T05:12:58.599Z,1.90
2022-12-01T05:15:26.854Z,1.85
2022-12-01T05:17:55.304Z,1.90
2022-12-01T05:20:44.826Z,1.95
2022-12-01T05:23:16.733Z,1.60
2022-12-01T05:25:45.845Z,1.63
2022-12-01T05:28:15.725Z,1.50
2022-12-01T05:30:44.981Z,1.63
2022-12-01T05:33:13.785Z,1.60
2022-12-01T05:35:44.299Z,1.70
2022-12-01T05:38:13.554Z,1.80
2022-12-01T05:40:41.897Z,1.45
2022-12-01T05:43:16.495Z,1.85
2022-12-01T05:45:45.796Z,1.60
2022-12-01T05:48:15.696Z,1.75
2022-12-01T05:50:48.763Z,1.60
2022-12-01T05:53:17.647Z,1.67
2022-12-01T05:55:46.256Z,1.80
2022-12-01T05:58:15.511Z,1.95
2022-12-01T06:00:46.178Z,1.63
2022-12-01T06:03:15.377Z,1.67
2022-12-01T06:05:52.997Z,1.90
2022-12-01T06:08:22.571Z,1.95
2022-12-01T06:10:52.837Z,1.90
2022-12-01T06:13:27.116Z,1.95
2022-12-01T06:15:59.734Z,1.80
2022-12-01T06:18:32.532Z,1.85
2022-12-01T06:21:03.847Z,2.10
2022-12-01T06:23:32.633Z,2.00
2022-12-01T06:26:00.944Z,1.70
2022-12-01T06:28:36.423Z,1.88
2022-12-01T06:31:04.983Z,1.70
2022-12-01T06:33:33.638Z,2.05
2022-12-01T06:36:05.066Z,2.03
2022-12-01T06:38:35.159Z,2.50
2022-12-01T06:41:04.516Z,1.80
2022-12-01T06:43:32.805Z,2.78
2022-12-01T06:46:02.499Z,2.25
2022-12-01T06:48:31.309Z,2.10
2022-12-01T06:50:59.757Z,2.08
2022-12-01T06:53:30.329Z,2.03
2022-12-01T06:56:01.797Z,1.80
2022-12-01T06:58:30.830Z,1.88
2022-12-01T07:01:00.028Z,2.75
2022-12-01T07:03:29.038Z,2.10
2022-12-01T07:05:59.230Z,1.98
2022-12-01T07:08:30.659Z,2.28
2022-12-01T07:11:01.419Z,2.28
2022-12-01T07:13:33.991Z,2.58
2022-12-01T07:16:03.633Z,2.40
2022-12-01T07:18:33.462Z,2.25
2022-12-01T07:21:02.592Z,2.38
2022-12-01T07:23:33.484Z,2.45
2022-12-01T07:26:07.383Z,2.90
2022-12-01T07:28:37.040Z,2.30
2022-12-01T07:31:09.664Z,3.00
2022-12-01T07:33:38.678Z,2.65
2022-12-01T07:36:10.185Z,2.75
2022-12-01T07:38:41.432Z,2.90
2022-12-01T07:41:11.479Z,2.97
2022-12-01T07:43:41.031Z,2.75
2022-12-01T07:46:11.235Z,2.85
2022-12-01T07:48:41.000Z,3.15
2022-12-01T07:51:11.985Z,3.40
2022-12-01T07:53:41.852Z,3.10
2022-12-01T07:56:10.411Z,3.15
2022-12-01T07:58:39.224Z,2.90
2022-12-01T08:01:09.155Z,3.08
2022-12-01T08:03:38.204Z,3.20
2022-12-01T08:06:08.240Z,4.20
2022-12-01T08:08:40.959Z,3.60
2022-12-01T08:11:13.570Z,3.50
2022-12-01T08:13:43.472Z,2.97
2022-12-01T08:16:14.294Z,3.15
2022-12-01T08:18:44.217Z,3.08
2022-12-01T08:21:15.453Z,3.70
2022-12-01T08:23:44.355Z,3.38
2022-12-01T08:26:16.784Z,4.47
2022-12-01T08:28:51.413Z,3.97
2022-12-01T08:31:22.864Z,3.92
2022-12-01T08:33:53.107Z,4.15
2022-12-01T08:36:23.500Z,3.42
2022-12-01T08:38:54.407Z,3.33
2022-12-01T08:41:25.652Z,3.80
2022-12-01T08:43:58.906Z,3.22
2022-12-01T08:46:30.108Z,3.55
2022-12-01T08:48:58.680Z,2.97
2022-12-01T08:51:29.050Z,3.10
2022-12-01T08:53:59.694Z,2.60
2022-12-01T08:56:32.697Z,3.25
2022-12-01T08:59:01.228Z,3.08
2022-12-01T09:01:30.288Z,2.78
2022-12-01T09:04:09.754Z,3.13
2022-12-01T09:06:43.279Z,3.03
2022-12-01T09:09:14.240Z,3.00
2022-12-01T09:11:46.611Z,2.90
2022-12-01T09:14:18.175Z,2.95
2022-12-01T09:16:50.221Z,3.40
2022-12-01T09:19:24.597Z,3.03
2022-12-01T09:21:54.025Z,3.30
2022-12-01T09:24:22.738Z,3.00
2022-12-01T09:26:56.541Z,3.20
2022-12-01T09:29:26.121Z,3.03
2022-12-01T09:31:59.137Z,2.92
2022-12-01T09:34:29.250Z,3.42
2022-12-01T09:36:58.995Z,2.75
2022-12-01T09:39:30.328Z,2.92
2022-12-01T09:42:08.735Z,2.70
2022-12-01T09:44:43.344Z,2.90
2022-12-01T09:47:20.145Z,2.60
2022-12-01T09:49:57.271Z,2.83
2022-12-01T09:52:28.072Z,2.60
2022-12-01T09:54:59.455Z,2.58
2022-12-01T09:57:34.166Z,2.40
2022-12-01T10:00:06.487Z,2.15
2022-12-01T10:02:38.848Z,2.30
2022-12-01T10:05:16.019Z,2.10
2022-12-01T10:07:50.016Z,1.98
2022-12-01T10:10:24.885Z,2.30
2022-12-01T10:12:55.777Z,1.90
2022-12-01T10:15:36.967Z,2.15
2022-12-01T10:18:22.562Z,1.90
2022-12-01T10:21:04.240Z,1.80
2022-12-01T10:23:51.200Z,2.10
2022-12-01T10:26:28.925Z,2.20
2022-12-01T10:29:15.370Z,2.75
2022-12-01T10:31:54.556Z,4.03
2022-12-01T10:34:28.125Z,5.20
2022-12-01T10:36:58.203Z,5.60
2022-12-01T10:39:32.213Z,6.65
2022-12-01T10:42:07.500Z,7.22
2022-12-01T10:44:37.766Z,7.13
2022-12-01T10:47:20.972Z,5.97
2022-12-01T10:49:49.964Z,5.43
2022-12-01T10:52:40.224Z,5.47
2022-12-01T10:55:27.942Z,5.00
2022-12-01T10:57:58.693Z,4.53
2022-12-01T11:03:24.498Z,4.70
2022-12-01T11:05:58.213Z,4.60
2022-12-01T11:08:35.259Z,3.88
2022-12-01T11:11:04.192Z,3.90
2022-12-01T11:13:36.465Z,4.38
2022-12-01T11:16:08.914Z,4.45
2022-12-01T11:18:39.444Z,4.07
2022-12-01T11:21:11.477Z,4.40
2022-12-01T11:23:46.463Z,4.28
2022-12-01T11:26:18.240Z,3.72
2022-12-01T11:28:55.507Z,3.80
2022-12-01T11:31:39.655Z,3.42
2022-12-01T11:34:19.088Z,2.80
2022-12-01T11:36:50.823Z,3.10
2022-12-01T11:39:27.780Z,2.95
2022-12-01T11:41:58.086Z,2.67
2022-12-01T11:47:24.084Z,2.35
2022-12-01T11:49:58.903Z,2.97
2022-12-01T11:52:31.480Z,2.72
2022-12-01T11:55:09.678Z,2.25
2022-12-01T11:57:41.968Z,2.40
2022-12-01T12:00:18.832Z,2.60
2022-12-01T12:03:01.828Z,3.00
2022-12-01T12:06:17.789Z,2.90
2022-12-01T12:09:08.885Z,2.95
2022-12-01T12:11:49.977Z,3.20
2022-12-01T12:14:35.841Z,3.33
2022-12-01T12:17:18.418Z,3.53
2022-12-01T12:20:09.214Z,3.45
2022-12-01T12:22:55.664Z,3.40
2022-12-01T12:25:34.120Z,3.50
2022-12-01T12:28:20.009Z,3.22
2022-12-01T12:30:59.966Z,3.83
2022-12-01T12:34:01.600Z,3.38
2022-12-01T12:36:45.227Z,3.53
2022-12-01T12:39:36.846Z,3.40
2022-12-01T12:42:10.788Z,3.45
2022-12-01T12:44:50.630Z,3.65
2022-12-01T12:47:37.479Z,3.55
2022-12-01T12:50:19.379Z,3.17
2022-12-01T12:52:53.890Z,3.45
2022-12-01T12:55:27.842Z,3.75
2022-12-01T12:58:00.819Z,3.30
2022-12-01T13:00:30.898Z,3.42
2022-12-01T13:03:07.377Z,3.58
2022-12-01T13:05:42.156Z,3.47
2022-12-01T13:08:18.255Z,3.33
2022-12-01T13:10:55.343Z,3.30
2022-12-01T13:13:29.498Z,3.55
2022-12-01T13:16:01.197Z,4.05
2022-12-01T13:18:36.512Z,3.70
2022-12-01T13:21:07.725Z,3.10
2022-12-01T13:23:41.023Z,3.80
2022-12-01T13:26:12.974Z,3.20
2022-12-01T13:28:46.328Z,3.40
2022-12-01T13:31:17.208Z,3.38
2022-12-01T13:33:55.614Z,3.33
2022-12-01T13:39:21.859Z,3.28
2022-12-01T13:42:01.873Z,3.22
2022-12-01T13:44:39.415Z,3.20
2022-12-01T13:47:34.919Z,3.58
2022-12-01T13:50:36.280Z,3.33
2022-12-01T13:53:14.529Z,3.35
2022-12-01T13:56:06.751Z,3.10
2022-12-01T13:58:55.642Z,3.00
2022-12-01T14:01:44.100Z,2.92
2022-12-01T14:04:30.819Z,3.13
2022-12-01T14:07:23.090Z,2.70
2022-12-01T14:09:53.697Z,2.95
2022-12-01T14:12:29.484Z,3.05
2022-12-01T14:15:02.107Z,3.05
2022-12-01T14:17:33.268Z,2.55
2022-12-01T14:20:09.722Z,3.00
2022-12-01T14:22:42.287Z,3.65
2022-12-01T14:25:26.007Z,3.00
2022-12-01T14:27:58.256Z,3.30
2022-12-01T14:31:03.643Z,3.00
2022-12-01T14:33:54.623Z,3.10
2022-12-01T14:36:38.445Z,3.22
2022-12-01T14:39:14.874Z,4.10
2022-12-01T14:41:48.818Z,4.22
2022-12-01T14:44:26.760Z,2.35
2022-12-01T14:47:01.712Z,2.25
2022-12-01T14:49:36.165Z,2.40
2022-12-01T14:52:09.163Z,2.58
2022-12-01T14:54:45.634Z,2.53
2022-12-01T14:57:17.958Z,3.00
2022-12-01T14:59:48.384Z,2.47
2022-12-01T15:02:17.000Z,2.47
2022-12-01T15:05:11.222Z,2.75
2022-12-01T15:07:41.589Z,2.38
2022-12-01T15:10:19.798Z,2.47
2022-12-01T15:12:48.501Z,2.85
2022-12-01T15:15:24.164Z,2.15
2022-12-01T15:17:57.965Z,2.70
2022-12-01T15:20:30.651Z,2.55
2022-12-01T15:23:00.256Z,2.53
2022-12-01T15:25:35.758Z,2.15
2022-12-01T15:28:14.368Z,2.50
2022-12-01T15:30:47.594Z,3.80
2022-12-01T15:33:26.974Z,2.60
2022-12-01T15:35:58.165Z,2.78
2022-12-01T15:38:33.214Z,3.20
2022-12-01T15:41:28.623Z,3.78
2022-12-01T15:43:58.160Z,3.40
2022-12-01T15:46:32.675Z,2.88
2022-12-01T15:49:10.980Z,3.30
2022-12-01T15:51:39.795Z,3.20
2022-12-01T15:54:15.023Z,3.30
2022-12-01T15:56:43.623Z,2.78
2022-12-01T15:59:25.648Z,2.63
2022-12-01T16:01:57.568Z,2.25
2022-12-01T16:04:29.111Z,3.20
2022-12-01T16:07:00.792Z,3.67
2022-12-01T16:09:34.079Z,3.13
2022-12-01T16:12:23.400Z,3.22
2022-12-01T16:14:55.530Z,2.72
2022-12-01T16:17:26.917Z,3.40
2022-12-01T16:20:17.253Z,3.13
2022-12-01T16:22:47.575Z,2.88
2022-12-01T16:25:23.630Z,2.65
2022-12-01T16:27:55.443Z,3.17
2022-12-01T16:30:26.959Z,3.08
2022-12-01T16:33:05.380Z,3.35
2022-12-01T16:35:35.264Z,4.05
2022-12-01T16:38:16.150Z,3.92
2022-12-01T16:40:45.068Z,2.92
2022-12-01T16:43:17.146Z,3.90
2022-12-01T16:45:46.579Z,3.15
2022-12-01T16:48:19.732Z,2.58
2022-12-01T16:50:49.199Z,2.90
2022-12-01T16:53:17.784Z,4.07
2022-12-01T16:55:50.578Z,6.30
2022-12-01T16:58:18.879Z,5.50
2022-12-01T17:00:52.769Z,5.97
2022-12-01T17:03:24.647Z,6.35
2022-12-01T17:05:54.500Z,6.15
2022-12-01T17:08:23.922Z,9.50
2022-12-01T17:10:53.276Z,9.82
2022-12-01T17:13:25.654Z,10.88
2022-12-01T17:15:56.748Z,12.85
2022-12-01T17:18:26.705Z,15.27
2022-12-01T17:21:00.188Z,9.23
2022-12-01T17:23:29.350Z,7.43
2022-12-01T17:25:57.983Z,9.02
2022-12-01T17:28:26.659Z,9.35
2022-12-01T17:30:55.221Z,11.98
2022-12-01T17:33:23.664Z,10.55
2022-12-01T17:35:53.680Z,15.30
2022-12-01T17:38:22.235Z,16.85
2022-12-01T17:41:01.987Z,18.75
2022-12-01T17:43:30.543Z,19.23
2022-12-01T17:45:58.964Z,17.35
2022-12-01T17:48:27.745Z,20.70
2022-12-01T17:50:57.842Z,20.98
2022-12-01T17:53:26.943Z,22.85
2022-12-01T17:55:55.802Z,21.42
2022-12-01T17:58:24.312Z,19.63
2022-12-01T18:00:54.298Z,16.70
2022-12-01T18:03:23.318Z,15.85
2022-12-01T18:05:58.859Z,16.92
2022-12-01T18:08:28.797Z,12.60
2022-12-01T18:10:57.572Z,13.35
2022-12-01T18:13:25.834Z,13.68
2022-12-01T18:15:56.980Z,14.82
2022-12-01T18:18:25.350Z,15.40
2022-12-01T18:20:53.671Z,14.77
2022-12-01T18:23:23.571Z,16.35
2022-12-01T18:25:52.076Z,16.58
2022-12-01T18:28:20.638Z,16.02
2022-12-01T18:30:49.551Z,16.33
2022-12-01T18:33:18.304Z,16.38
2022-12-01T18:35:46.602Z,15.75
2022-12-01T18:38:14.883Z,15.98
2022-12-01T18:40:44.673Z,16.02
2022-12-01T18:43:12.909Z,15.30
2022-12-01T18:45:42.435Z,15.00
2022-12-01T18:48:10.913Z,12.85
2022-12-01T18:50:39.155Z,12.63
2022-12-01T18:53:07.997Z,10.90
2022-12-01T18:55:38.400Z,10.45
2022-12-01T18:58:08.361Z,9.82
2022-12-01T19:00:37.360Z,10.38
2022-12-01T19:03:06.682Z,10.50
2022-12-01T19:05:39.043Z,9.52
2022-12-01T19:08:07.825Z,9.90
2022-12-01T19:10:36.546Z,11.43
2022-12-01T19:13:05.473Z,12.25
2022-12-01T19:15:38.585Z,11.60
2022-12-01T19:18:07.263Z,11.63
2022-12-01T19:20:38.638Z,11.88
2022-12-01T19:23:07.263Z,11.98
2022-12-01T19:25:37.906Z,13.35
2022-12-01T19:28:06.471Z,11.98
2022-12-01T19:30:36.772Z,11.50
2022-12-01T19:33:05.350Z,10.73
2022-12-01T19:35:33.959Z,11.05
2022-12-01T19:38:02.602Z,15.48
2022-12-01T19:40:31.065Z,15.35
2022-12-01T19:42:59.982Z,16.33
2022-12-01T19:45:30.379Z,14.77
2022-12-01T19:48:00.792Z,12.75
2022-12-01T19:50:29.390Z,12.07
2022-12-01T19:52:58.203Z,14.55
2022-12-01T19:55:26.754Z,12.88
2022-12-01T19:57:55.317Z,14.77
2022-12-01T20:00:25.965Z,14.80
2022-12-01T20:02:54.493Z,14.65
2022-12-01T20:05:24.670Z,14.32
2022-12-01T20:07:53.237Z,14.45
2022-12-01T20:10:21.852Z,15.98
2022-12-01T20:12:50.900Z,16.95
2022-12-01T20:15:19.642Z,14.95
2022-12-01T20:17:50.440Z,16.75
2022-12-01T20:20:19.108Z,17.35
2022-12-01T20:22:48.907Z,17.58
2022-12-01T20:25:19.033Z,21.15
2022-12-01T20:27:47.475Z,20.67
2022-12-01T20:30:16.890Z,20.35
2022-12-01T20:32:45.525Z,19.52
2022-12-01T20:35:15.016Z,18.50
2022-12-01T20:37:43.472Z,18.45
2022-12-01T20:40:14.519Z,14.48
2022-12-01T20:42:43.176Z,14.80
2022-12-01T20:45:11.849Z,14.48
2022-12-01T20:47:40.653Z,15.30
2022-12-01T20:50:09.831Z,14.90
2022-12-01T20:52:41.078Z,12.05
2022-12-01T20:55:10.276Z,13.45
2022-12-01T20:57:40.365Z,13.43
2022-12-01T21:00:13.450Z,11.52
2022-12-01T21:02:43.818Z,11.05
2022-12-01T21:05:12.605Z,10.80
2022-12-01T21:07:45.065Z,10.88
2022-12-01T21:10:19.685Z,10.45
2022-12-01T21:13:11.279Z,10.85
2022-12-01T21:15:52.477Z,10.63
2022-12-01T21:18:25.081Z,13.27
2022-12-01T21:21:03.708Z,11.88
2022-12-01T21:23:32.292Z,11.60
2022-12-01T21:26:02.162Z,10.63
2022-12-01T21:28:33.655Z,9.77
2022-12-01T21:31:12.729Z,8.10
2022-12-01T21:33:43.046Z,7.38
2022-12-01T21:36:17.647Z,6.55
2022-12-01T21:38:47.392Z,6.90
2022-12-01T21:41:22.280Z,6.68
2022-12-01T21:43:52.790Z,6.13
2022-12-01T21:46:21.312Z,6.53
2022-12-01T21:48:51.290Z,6.13
2022-12-01T21:51:23.345Z,5.70
2022-12-01T21:53:53.333Z,5.75
2022-12-01T21:56:23.270Z,5.90
2022-12-01T21:58:54.552Z,5.45
2022-12-01T22:01:29.047Z,6.28
2022-12-01T22:04:02.484Z,6.90
2022-12-01T22:06:37.153Z,6.53
2022-12-01T22:09:15.811Z,6.88
2022-12-01T22:11:54.848Z,7.00
2022-12-01T22:14:29.346Z,7.75
2022-12-01T22:17:01.202Z,7.95
2022-12-01T22:19:34.292Z,7.88
2022-12-01T22:22:05.752Z,8.02
2022-12-01T22:24:42.157Z,8.07
2022-12-01T22:27:31.280Z,7.35
2022-12-01T22:30:03.713Z,7.68
2022-12-01T22:32:51.204Z,7.90
2022-12-01T22:35:25.914Z,8.20
2022-12-01T22:37:58.264Z,7.60
2022-12-01T22:40:55.815Z,7.93
2022-12-01T22:43:27.968Z,8.75
2022-12-01T22:46:08.783Z,9.35
2022-12-01T22:48:40.656Z,9.45
2022-12-01T22:51:22.818Z,9.32
2022-12-01T22:53:53.452Z,10.15
2022-12-01T22:56:32.407Z,10.57
2022-12-01T22:59:00.973Z,10.35
2022-12-01T23:01:33.681Z,10.35
2022-12-01T23:04:20.078Z,10.85
2022-12-01T23:07:11.233Z,10.13
2022-12-01T23:09:42.987Z,10.13
2022-12-01T23:12:27.010Z,10.57
2022-12-01T23:15:01.292Z,10.88
2022-12-01T23:17:34.659Z,10.52
2022-12-01T23:20:24.499Z,10.07
2022-12-01T23:22:55.862Z,10.15
2022-12-01T23:25:25.627Z,10.48
2022-12-01T23:27:56.270Z,10.98
2022-12-01T23:30:26.158Z,11.15
2022-12-01T23:33:14.704Z,10.63
2022-12-01T23:35:47.466Z,10.23
2022-12-01T23:38:19.125Z,9.77
2022-12-01T23:40:48.775Z,8.77
2022-12-01T23:43:22.531Z,9.13
2022-12-01T23:45:59.269Z,9.82
2022-12-01T23:48:35.896Z,9.05
2022-12-01T23:51:05.619Z,9.00
2022-12-01T23:53:36.219Z,7.82
2022-12-01T23:56:11.869Z,7.97
2022-12-01T23:58:40.336Z,8.05
